sensor_id;sensor_type;location;lat;lon;timestamp;temperature;humidity
21666;DHT22;10994;45.486;9.190;2023-01-16T00:00:59;9.60;99.90
21666;DHT22;10994;45.486;9.190;2023-01-16T00:03:25;9.60;99.90
21666;DHT22;10994;45.486;9.190;2023-01-16T00:05:51;9.60;99.90
21666;DHT22;10994;45.486;9.190;2023-01-16T00:08:16;9.60;99.90
21666;DHT22;10994;45.486;9.190;2023-01-16T00:10:43;9.60;99.90
21666;DHT22;10994;45.486;9.190;2023-01-16T00:13:10;9.70;99.90
21666;DHT22;10994;45.486;9.190;2023-01-16T00:15:36;9.70;99.90
21666;DHT22;10994;45.486;9.190;2023-01-16T00:18:02;9.70;99.90
21666;DHT22;10994;45.486;9.190;2023-01-16T00:20:28;9.80;99.90
21666;DHT22;10994;45.486;9.190;2023-01-16T00:22:53;9.80;99.90
21666;DHT22;10994;45.486;9.190;2023-01-16T00:25:19;9.80;99.90
21666;DHT22;10994;45.486;9.190;2023-01-16T00:27:45;9.70;99.90
21666;DHT22;10994;45.486;9.190;2023-01-16T00:30:10;9.60;99.90
21666;DHT22;10994;45.486;9.190;2023-01-16T00:32:36;9.40;99.90
21666;DHT22;10994;45.486;9.190;2023-01-16T00:35:02;9.30;99.90
21666;DHT22;10994;45.486;9.190;2023-01-16T00:37:28;9.30;99.90
21666;DHT22;10994;45.486;9.190;2023-01-16T00:39:54;9.30;99.90
21666;DHT22;10994;45.486;9.190;2023-01-16T00:42:20;9.30;99.90
21666;DHT22;10994;45.486;9.190;2023-01-16T00:44:45;9.20;99.90
21666;DHT22;10994;45.486;9.190;2023-01-16T00:47:11;9.20;99.90
21666;DHT22;10994;45.486;9.190;2023-01-16T00:49:37;9.20;99.90
21666;DHT22;10994;45.486;9.190;2023-01-16T00:52:03;9.30;99.90
21666;DHT22;10994;45.486;9.190;2023-01-16T00:54:28;9.30;99.90
21666;DHT22;10994;45.486;9.190;2023-01-16T00:56:54;9.30;99.90
21666;DHT22;10994;45.486;9.190;2023-01-16T00:59:20;9.30;99.90
21666;DHT22;10994;45.486;9.190;2023-01-16T01:01:45;9.40;99.90
21666;DHT22;10994;45.486;9.190;2023-01-16T01:04:11;9.40;99.90
21666;DHT22;10994;45.486;9.190;2023-01-16T01:06:38;9.40;99.90
21666;DHT22;10994;45.486;9.190;2023-01-16T01:09:04;9.40;99.90
21666;DHT22;10994;45.486;9.190;2023-01-16T01:11:30;9.40;99.90
21666;DHT22;10994;45.486;9.190;2023-01-16T01:13:56;9.30;99.90
21666;DHT22;10994;45.486;9.190;2023-01-16T01:16:22;9.20;99.90
21666;DHT22;10994;45.486;9.190;2023-01-16T01:18:48;9.10;99.90
21666;DHT22;10994;45.486;9.190;2023-01-16T01:21:14;9.10;99.90
21666;DHT22;10994;45.486;9.190;2023-01-16T01:23:39;9.00;99.90
21666;DHT22;10994;45.486;9.190;2023-01-16T01:26:09;9.00;99.90
21666;DHT22;10994;45.486;9.190;2023-01-16T01:28:36;9.00;99.90
21666;DHT22;10994;45.486;9.190;2023-01-16T01:31:06;9.00;99.90
21666;DHT22;10994;45.486;9.190;2023-01-16T01:33:33;8.90;99.90
21666;DHT22;10994;45.486;9.190;2023-01-16T01:35:59;8.80;99.90
21666;DHT22;10994;45.486;9.190;2023-01-16T01:38:24;8.80;99.90
21666;DHT22;10994;45.486;9.190;2023-01-16T01:40:50;8.60;99.90
21666;DHT22;10994;45.486;9.190;2023-01-16T01:43:16;8.50;99.90
21666;DHT22;10994;45.486;9.190;2023-01-16T01:45:50;8.50;99.90
21666;DHT22;10994;45.486;9.190;2023-01-16T01:48:24;8.40;99.90
21666;DHT22;10994;45.486;9.190;2023-01-16T01:50:53;8.40;99.90
21666;DHT22;10994;45.486;9.190;2023-01-16T01:53:31;8.30;99.90
21666;DHT22;10994;45.486;9.190;2023-01-16T01:56:07;8.30;99.90
21666;DHT22;10994;45.486;9.190;2023-01-16T01:58:34;8.20;99.90
21666;DHT22;10994;45.486;9.190;2023-01-16T02:01:01;8.20;99.90
21666;DHT22;10994;45.486;9.190;2023-01-16T02:05:59;8.20;99.90
21666;DHT22;10994;45.486;9.190;2023-01-16T02:08:29;8.20;99.90
21666;DHT22;10994;45.486;9.190;2023-01-16T02:11:22;8.20;99.90
21666;DHT22;10994;45.486;9.190;2023-01-16T02:14:02;8.20;99.90
21666;DHT22;10994;45.486;9.190;2023-01-16T02:16:29;8.20;99.90
21666;DHT22;10994;45.486;9.190;2023-01-16T02:45:01;8.20;99.90
21666;DHT22;10994;45.486;9.190;2023-01-16T02:47:43;8.20;99.90
21666;DHT22;10994;45.486;9.190;2023-01-16T02:50:40;8.20;99.90
21666;DHT22;10994;45.486;9.190;2023-01-16T02:53:29;8.20;99.90
21666;DHT22;10994;45.486;9.190;2023-01-16T02:56:02;8.20;99.90
21666;DHT22;10994;45.486;9.190;2023-01-16T02:58:35;8.20;99.90
21666;DHT22;10994;45.486;9.190;2023-01-16T03:01:01;8.30;99.90
21666;DHT22;10994;45.486;9.190;2023-01-16T03:03:42;8.30;99.90
21666;DHT22;10994;45.486;9.190;2023-01-16T03:11:32;8.20;99.90
21666;DHT22;10994;45.486;9.190;2023-01-16T03:14:35;8.20;99.90
21666;DHT22;10994;45.486;9.190;2023-01-16T03:17:17;8.20;99.90
21666;DHT22;10994;45.486;9.190;2023-01-16T03:19:52;8.20;99.90
21666;DHT22;10994;45.486;9.190;2023-01-16T03:22:31;8.30;99.90
21666;DHT22;10994;45.486;9.190;2023-01-16T03:25:04;8.30;99.90
21666;DHT22;10994;45.486;9.190;2023-01-16T03:27:53;8.30;99.90
21666;DHT22;10994;45.486;9.190;2023-01-16T03:30:25;8.40;99.90
21666;DHT22;10994;45.486;9.190;2023-01-16T03:33:36;8.40;99.90
21666;DHT22;10994;45.486;9.190;2023-01-16T03:36:21;8.50;99.90
21666;DHT22;10994;45.486;9.190;2023-01-16T03:38:50;8.50;99.90
21666;DHT22;10994;45.486;9.190;2023-01-16T03:41:20;8.60;99.90
21666;DHT22;10994;45.486;9.190;2023-01-16T03:43:51;8.60;99.90
21666;DHT22;10994;45.486;9.190;2023-01-16T03:46:21;8.50;99.90
21666;DHT22;10994;45.486;9.190;2023-01-16T03:48:52;8.50;99.90
21666;DHT22;10994;45.486;9.190;2023-01-16T03:51:23;8.50;99.90
21666;DHT22;10994;45.486;9.190;2023-01-16T03:54:11;8.50;99.90
21666;DHT22;10994;45.486;9.190;2023-01-16T03:59:38;8.60;99.90
21666;DHT22;10994;45.486;9.190;2023-01-16T04:02:12;8.60;99.90
21666;DHT22;10994;45.486;9.190;2023-01-16T04:04:58;8.60;99.90
21666;DHT22;10994;45.486;9.190;2023-01-16T04:07:31;8.70;99.90
21666;DHT22;10994;45.486;9.190;2023-01-16T04:10:06;8.70;99.90
21666;DHT22;10994;45.486;9.190;2023-01-16T04:12:42;8.70;99.90
21666;DHT22;10994;45.486;9.190;2023-01-16T04:15:10;8.60;99.90
21666;DHT22;10994;45.486;9.190;2023-01-16T04:17:40;8.50;99.90
21666;DHT22;10994;45.486;9.190;2023-01-16T04:20:07;8.30;99.90
21666;DHT22;10994;45.486;9.190;2023-01-16T04:22:33;8.20;99.90
21666;DHT22;10994;45.486;9.190;2023-01-16T04:25:01;8.10;99.90
21666;DHT22;10994;45.486;9.190;2023-01-16T04:27:27;8.10;99.90
21666;DHT22;10994;45.486;9.190;2023-01-16T04:29:53;8.10;99.90
21666;DHT22;10994;45.486;9.190;2023-01-16T04:32:19;8.10;99.90
21666;DHT22;10994;45.486;9.190;2023-01-16T04:34:45;8.10;99.90
21666;DHT22;10994;45.486;9.190;2023-01-16T04:37:12;8.00;99.90
21666;DHT22;10994;45.486;9.190;2023-01-16T04:39:39;8.00;99.90
21666;DHT22;10994;45.486;9.190;2023-01-16T04:42:06;8.10;99.90
21666;DHT22;10994;45.486;9.190;2023-01-16T04:44:31;8.10;99.90
21666;DHT22;10994;45.486;9.190;2023-01-16T04:46:57;8.10;99.90
21666;DHT22;10994;45.486;9.190;2023-01-16T04:49:23;8.00;99.90
21666;DHT22;10994;45.486;9.190;2023-01-16T04:51:48;8.10;99.90
21666;DHT22;10994;45.486;9.190;2023-01-16T04:54:16;8.00;99.90
21666;DHT22;10994;45.486;9.190;2023-01-16T04:56:41;8.00;99.90
21666;DHT22;10994;45.486;9.190;2023-01-16T04:59:08;8.10;99.90
21666;DHT22;10994;45.486;9.190;2023-01-16T05:01:34;8.10;99.90
21666;DHT22;10994;45.486;9.190;2023-01-16T05:04:03;8.10;99.90
21666;DHT22;10994;45.486;9.190;2023-01-16T05:06:29;8.10;99.90
21666;DHT22;10994;45.486;9.190;2023-01-16T05:08:54;8.10;99.90
21666;DHT22;10994;45.486;9.190;2023-01-16T05:11:20;8.00;99.90
21666;DHT22;10994;45.486;9.190;2023-01-16T05:13:46;8.00;99.90
21666;DHT22;10994;45.486;9.190;2023-01-16T05:16:11;7.90;99.90
21666;DHT22;10994;45.486;9.190;2023-01-16T05:18:37;7.90;99.90
21666;DHT22;10994;45.486;9.190;2023-01-16T05:21:02;7.90;99.90
21666;DHT22;10994;45.486;9.190;2023-01-16T05:23:31;7.90;99.90
21666;DHT22;10994;45.486;9.190;2023-01-16T05:25:59;7.90;99.90
21666;DHT22;10994;45.486;9.190;2023-01-16T05:28:25;8.00;99.90
21666;DHT22;10994;45.486;9.190;2023-01-16T05:30:50;8.00;99.90
21666;DHT22;10994;45.486;9.190;2023-01-16T05:33:16;8.00;99.90
21666;DHT22;10994;45.486;9.190;2023-01-16T05:35:42;8.00;99.90
21666;DHT22;10994;45.486;9.190;2023-01-16T05:38:08;8.00;99.90
21666;DHT22;10994;45.486;9.190;2023-01-16T05:40:33;8.00;99.90
21666;DHT22;10994;45.486;9.190;2023-01-16T05:42:59;7.90;99.90
21666;DHT22;10994;45.486;9.190;2023-01-16T05:45:24;7.90;99.90
21666;DHT22;10994;45.486;9.190;2023-01-16T05:47:50;7.90;99.90
21666;DHT22;10994;45.486;9.190;2023-01-16T05:50:16;7.80;99.90
21666;DHT22;10994;45.486;9.190;2023-01-16T05:52:41;7.90;99.90
21666;DHT22;10994;45.486;9.190;2023-01-16T05:55:07;7.90;99.90
21666;DHT22;10994;45.486;9.190;2023-01-16T05:57:33;7.90;99.90
21666;DHT22;10994;45.486;9.190;2023-01-16T05:59:59;8.00;99.90
21666;DHT22;10994;45.486;9.190;2023-01-16T06:02:24;8.10;99.90
21666;DHT22;10994;45.486;9.190;2023-01-16T06:04:50;8.10;99.90
21666;DHT22;10994;45.486;9.190;2023-01-16T06:07:17;8.10;99.90
21666;DHT22;10994;45.486;9.190;2023-01-16T06:09:42;8.10;99.90
21666;DHT22;10994;45.486;9.190;2023-01-16T06:12:13;8.00;99.90
21666;DHT22;10994;45.486;9.190;2023-01-16T06:14:39;8.10;99.90
21666;DHT22;10994;45.486;9.190;2023-01-16T06:17:05;8.10;99.90
21666;DHT22;10994;45.486;9.190;2023-01-16T06:19:30;8.10;99.90
21666;DHT22;10994;45.486;9.190;2023-01-16T06:21:56;8.10;99.90
21666;DHT22;10994;45.486;9.190;2023-01-16T06:24:21;8.10;99.90
21666;DHT22;10994;45.486;9.190;2023-01-16T06:26:47;8.10;99.90
21666;DHT22;10994;45.486;9.190;2023-01-16T06:29:13;8.20;99.90
21666;DHT22;10994;45.486;9.190;2023-01-16T06:31:38;8.20;99.90
21666;DHT22;10994;45.486;9.190;2023-01-16T06:34:04;8.20;99.90
21666;DHT22;10994;45.486;9.190;2023-01-16T06:36:30;8.20;99.90
21666;DHT22;10994;45.486;9.190;2023-01-16T06:38:55;8.20;99.90
21666;DHT22;10994;45.486;9.190;2023-01-16T06:41:21;8.20;99.90
21666;DHT22;10994;45.486;9.190;2023-01-16T06:43:47;8.10;99.90
21666;DHT22;10994;45.486;9.190;2023-01-16T06:46:12;8.10;99.90
21666;DHT22;10994;45.486;9.190;2023-01-16T06:48:38;8.10;99.90
21666;DHT22;10994;45.486;9.190;2023-01-16T06:51:03;8.00;99.90
21666;DHT22;10994;45.486;9.190;2023-01-16T06:53:29;8.00;99.90
21666;DHT22;10994;45.486;9.190;2023-01-16T06:55:55;7.90;99.90
21666;DHT22;10994;45.486;9.190;2023-01-16T06:58:20;7.90;99.90
21666;DHT22;10994;45.486;9.190;2023-01-16T07:00:47;8.00;99.90
21666;DHT22;10994;45.486;9.190;2023-01-16T07:03:16;8.00;99.90
21666;DHT22;10994;45.486;9.190;2023-01-16T07:05:43;7.90;99.90
21666;DHT22;10994;45.486;9.190;2023-01-16T07:08:09;7.80;99.90
21666;DHT22;10994;45.486;9.190;2023-01-16T07:10:35;7.80;99.90
21666;DHT22;10994;45.486;9.190;2023-01-16T07:13:01;7.90;99.90
21666;DHT22;10994;45.486;9.190;2023-01-16T07:15:27;7.90;99.90
21666;DHT22;10994;45.486;9.190;2023-01-16T07:18:13;7.90;99.90
21666;DHT22;10994;45.486;9.190;2023-01-16T07:21:00;7.90;99.90
21666;DHT22;10994;45.486;9.190;2023-01-16T07:23:54;7.80;99.90
21666;DHT22;10994;45.486;9.190;2023-01-16T07:26:22;7.80;99.90
21666;DHT22;10994;45.486;9.190;2023-01-16T07:28:49;7.90;99.90
21666;DHT22;10994;45.486;9.190;2023-01-16T07:31:16;7.80;99.90
21666;DHT22;10994;45.486;9.190;2023-01-16T07:33:42;7.70;99.90
21666;DHT22;10994;45.486;9.190;2023-01-16T07:36:07;7.50;99.90
21666;DHT22;10994;45.486;9.190;2023-01-16T07:38:33;7.40;99.90
21666;DHT22;10994;45.486;9.190;2023-01-16T07:40:59;7.30;99.90
21666;DHT22;10994;45.486;9.190;2023-01-16T07:43:24;7.30;99.90
21666;DHT22;10994;45.486;9.190;2023-01-16T07:45:50;7.30;99.90
21666;DHT22;10994;45.486;9.190;2023-01-16T07:48:24;7.30;99.90
21666;DHT22;10994;45.486;9.190;2023-01-16T07:50:57;7.30;99.90
21666;DHT22;10994;45.486;9.190;2023-01-16T07:53:25;7.40;99.90
21666;DHT22;10994;45.486;9.190;2023-01-16T07:55:53;7.40;99.90
21666;DHT22;10994;45.486;9.190;2023-01-16T07:58:19;7.40;99.90
21666;DHT22;10994;45.486;9.190;2023-01-16T08:00:47;7.50;99.90
21666;DHT22;10994;45.486;9.190;2023-01-16T08:03:13;7.50;99.90
21666;DHT22;10994;45.486;9.190;2023-01-16T08:05:40;7.50;99.90
21666;DHT22;10994;45.486;9.190;2023-01-16T08:08:06;7.50;99.90
21666;DHT22;10994;45.486;9.190;2023-01-16T08:10:32;7.40;99.90
21666;DHT22;10994;45.486;9.190;2023-01-16T08:12:57;7.30;99.90
21666;DHT22;10994;45.486;9.190;2023-01-16T08:15:23;7.30;99.90
21666;DHT22;10994;45.486;9.190;2023-01-16T08:17:49;7.30;99.90
21666;DHT22;10994;45.486;9.190;2023-01-16T08:20:14;7.40;99.90
21666;DHT22;10994;45.486;9.190;2023-01-16T08:22:48;7.40;99.90
21666;DHT22;10994;45.486;9.190;2023-01-16T08:25:16;7.50;99.90
21666;DHT22;10994;45.486;9.190;2023-01-16T08:27:42;7.50;99.90
21666;DHT22;10994;45.486;9.190;2023-01-16T08:30:08;7.60;99.90
21666;DHT22;10994;45.486;9.190;2023-01-16T08:32:34;7.70;99.90
21666;DHT22;10994;45.486;9.190;2023-01-16T08:35:01;7.80;99.90
21666;DHT22;10994;45.486;9.190;2023-01-16T08:37:32;7.80;99.90
21666;DHT22;10994;45.486;9.190;2023-01-16T08:39:58;7.80;99.90
21666;DHT22;10994;45.486;9.190;2023-01-16T08:42:24;7.80;99.90
21666;DHT22;10994;45.486;9.190;2023-01-16T08:45:12;7.70;99.90
21666;DHT22;10994;45.486;9.190;2023-01-16T08:47:57;7.70;99.90
21666;DHT22;10994;45.486;9.190;2023-01-16T08:50:43;7.80;99.90
21666;DHT22;10994;45.486;9.190;2023-01-16T08:53:27;7.90;99.90
21666;DHT22;10994;45.486;9.190;2023-01-16T08:55:53;8.00;99.90
21666;DHT22;10994;45.486;9.190;2023-01-16T08:58:19;8.10;99.90
21666;DHT22;10994;45.486;9.190;2023-01-16T09:00:48;8.10;99.90
21666;DHT22;10994;45.486;9.190;2023-01-16T09:03:15;8.00;99.90
21666;DHT22;10994;45.486;9.190;2023-01-16T09:05:43;8.00;99.90
21666;DHT22;10994;45.486;9.190;2023-01-16T09:08:09;7.90;99.90
21666;DHT22;10994;45.486;9.190;2023-01-16T09:10:35;7.90;99.90
21666;DHT22;10994;45.486;9.190;2023-01-16T09:13:01;7.90;99.90
21666;DHT22;10994;45.486;9.190;2023-01-16T09:15:45;7.90;99.90
21666;DHT22;10994;45.486;9.190;2023-01-16T09:18:11;7.90;99.90
21666;DHT22;10994;45.486;9.190;2023-01-16T09:20:36;7.90;99.90
21666;DHT22;10994;45.486;9.190;2023-01-16T09:23:03;7.90;99.90
21666;DHT22;10994;45.486;9.190;2023-01-16T09:25:30;7.90;99.90
21666;DHT22;10994;45.486;9.190;2023-01-16T09:27:56;7.90;99.90
21666;DHT22;10994;45.486;9.190;2023-01-16T09:30:22;7.90;99.90
21666;DHT22;10994;45.486;9.190;2023-01-16T09:32:48;7.90;99.90
21666;DHT22;10994;45.486;9.190;2023-01-16T09:35:14;7.90;99.90
21666;DHT22;10994;45.486;9.190;2023-01-16T09:37:42;7.90;99.90
21666;DHT22;10994;45.486;9.190;2023-01-16T09:40:26;7.90;99.90
21666;DHT22;10994;45.486;9.190;2023-01-16T09:45:45;7.70;99.90
21666;DHT22;10994;45.486;9.190;2023-01-16T09:48:28;7.50;99.90
21666;DHT22;10994;45.486;9.190;2023-01-16T09:51:06;7.30;99.90
21666;DHT22;10994;45.486;9.190;2023-01-16T09:53:38;7.20;99.90
21666;DHT22;10994;45.486;9.190;2023-01-16T09:56:28;7.10;99.90
21666;DHT22;10994;45.486;9.190;2023-01-16T09:59:31;7.20;99.90
21666;DHT22;10994;45.486;9.190;2023-01-16T10:04:33;7.20;99.90
21666;DHT22;10994;45.486;9.190;2023-01-16T10:12:37;7.10;99.90
21666;DHT22;10994;45.486;9.190;2023-01-16T10:15:23;7.10;99.90
21666;DHT22;10994;45.486;9.190;2023-01-16T10:28:50;7.10;99.90
21666;DHT22;10994;45.486;9.190;2023-01-16T10:31:27;7.10;99.90
21666;DHT22;10994;45.486;9.190;2023-01-16T10:36:45;7.10;99.90
21666;DHT22;10994;45.486;9.190;2023-01-16T10:39:13;7.10;99.90
21666;DHT22;10994;45.486;9.190;2023-01-16T10:41:53;7.10;99.90
21666;DHT22;10994;45.486;9.190;2023-01-16T10:47:51;6.90;99.90
21666;DHT22;10994;45.486;9.190;2023-01-16T10:50:35;6.90;99.90
21666;DHT22;10994;45.486;9.190;2023-01-16T10:53:03;6.90;99.90
21666;DHT22;10994;45.486;9.190;2023-01-16T10:55:30;7.00;99.90
21666;DHT22;10994;45.486;9.190;2023-01-16T10:58:46;7.10;99.90
21666;DHT22;10994;45.486;9.190;2023-01-16T11:00:47;7.10;99.90
21666;DHT22;10994;45.486;9.190;2023-01-16T11:05:47;7.10;99.90
21666;DHT22;10994;45.486;9.190;2023-01-16T11:08:18;7.10;99.90
21666;DHT22;10994;45.486;9.190;2023-01-16T11:10:49;7.10;99.90
21666;DHT22;10994;45.486;9.190;2023-01-16T11:13:22;7.10;99.90
21666;DHT22;10994;45.486;9.190;2023-01-16T11:19:18;7.20;99.90
21666;DHT22;10994;45.486;9.190;2023-01-16T11:21:48;7.30;99.90
21666;DHT22;10994;45.486;9.190;2023-01-16T11:24:19;7.40;99.90
21666;DHT22;10994;45.486;9.190;2023-01-16T11:26:52;7.40;99.90
21666;DHT22;10994;45.486;9.190;2023-01-16T11:29:20;7.40;99.90
21666;DHT22;10994;45.486;9.190;2023-01-16T11:32:00;7.50;99.90
21666;DHT22;10994;45.486;9.190;2023-01-16T11:34:29;7.60;99.90
21666;DHT22;10994;45.486;9.190;2023-01-16T11:36:57;7.70;99.90
21666;DHT22;10994;45.486;9.190;2023-01-16T11:39:29;7.80;99.90
21666;DHT22;10994;45.486;9.190;2023-01-16T11:41:57;7.80;99.90
21666;DHT22;10994;45.486;9.190;2023-01-16T11:44:27;7.80;99.90
21666;DHT22;10994;45.486;9.190;2023-01-16T11:47:15;7.90;99.90
21666;DHT22;10994;45.486;9.190;2023-01-16T11:49:49;7.90;99.90
21666;DHT22;10994;45.486;9.190;2023-01-16T11:52:21;7.90;99.90
21666;DHT22;10994;45.486;9.190;2023-01-16T11:54:58;7.90;99.90
21666;DHT22;10994;45.486;9.190;2023-01-16T11:57:44;7.90;99.90
21666;DHT22;10994;45.486;9.190;2023-01-16T12:00:58;8.00;99.90
21666;DHT22;10994;45.486;9.190;2023-01-16T12:06:52;7.90;99.90
21666;DHT22;10994;45.486;9.190;2023-01-16T12:15:09;7.90;99.90
21666;DHT22;10994;45.486;9.190;2023-01-16T12:18:30;8.00;99.90
21666;DHT22;10994;45.486;9.190;2023-01-16T12:26:17;8.10;99.90
21666;DHT22;10994;45.486;9.190;2023-01-16T12:34:37;8.00;99.90
21666;DHT22;10994;45.486;9.190;2023-01-16T13:00:13;8.20;99.90
21666;DHT22;10994;45.486;9.190;2023-01-16T13:05:33;8.10;99.90
21666;DHT22;10994;45.486;9.190;2023-01-16T13:08:28;8.20;99.90
21666;DHT22;10994;45.486;9.190;2023-01-16T13:11:01;8.20;99.90
21666;DHT22;10994;45.486;9.190;2023-01-16T13:13:51;8.20;99.90
21666;DHT22;10994;45.486;9.190;2023-01-16T13:16:34;8.20;99.90
21666;DHT22;10994;45.486;9.190;2023-01-16T13:19:13;8.20;99.90
21666;DHT22;10994;45.486;9.190;2023-01-16T13:22:43;8.30;99.90
21666;DHT22;10994;45.486;9.190;2023-01-16T13:25:14;8.20;99.90
21666;DHT22;10994;45.486;9.190;2023-01-16T13:27:53;8.30;99.90
21666;DHT22;10994;45.486;9.190;2023-01-16T13:30:21;8.40;99.90
21666;DHT22;10994;45.486;9.190;2023-01-16T13:35:43;8.50;99.90
21666;DHT22;10994;45.486;9.190;2023-01-16T13:38:59;8.50;99.90
21666;DHT22;10994;45.486;9.190;2023-01-16T13:41:34;8.40;99.90
21666;DHT22;10994;45.486;9.190;2023-01-16T13:46:52;8.30;99.90
21666;DHT22;10994;45.486;9.190;2023-01-16T13:49:21;8.30;99.90
21666;DHT22;10994;45.486;9.190;2023-01-16T13:51:49;8.20;99.90
21666;DHT22;10994;45.486;9.190;2023-01-16T13:54:19;8.20;99.90
21666;DHT22;10994;45.486;9.190;2023-01-16T13:57:19;8.30;99.90
21666;DHT22;10994;45.486;9.190;2023-01-16T13:59:51;8.30;99.90
21666;DHT22;10994;45.486;9.190;2023-01-16T14:11:36;8.50;99.90
21666;DHT22;10994;45.486;9.190;2023-01-16T14:13:37;8.50;99.90
21666;DHT22;10994;45.486;9.190;2023-01-16T14:24:00;8.60;99.90
21666;DHT22;10994;45.486;9.190;2023-01-16T14:26:44;8.50;99.90
21666;DHT22;10994;45.486;9.190;2023-01-16T14:29:26;8.60;99.90
21666;DHT22;10994;45.486;9.190;2023-01-16T14:34:32;8.50;99.90
21666;DHT22;10994;45.486;9.190;2023-01-16T14:37:12;8.60;99.90
21666;DHT22;10994;45.486;9.190;2023-01-16T14:39:51;8.60;99.90
21666;DHT22;10994;45.486;9.190;2023-01-16T14:42:39;8.60;99.90
21666;DHT22;10994;45.486;9.190;2023-01-16T14:45:29;8.70;99.90
21666;DHT22;10994;45.486;9.190;2023-01-16T14:48:35;8.80;99.90
21666;DHT22;10994;45.486;9.190;2023-01-16T14:54:27;8.90;99.90
21666;DHT22;10994;45.486;9.190;2023-01-16T14:57:23;8.80;99.90
21666;DHT22;10994;45.486;9.190;2023-01-16T15:02:37;8.80;99.90
21666;DHT22;10994;45.486;9.190;2023-01-16T15:05:11;8.90;99.90
21666;DHT22;10994;45.486;9.190;2023-01-16T15:07:44;8.90;99.90
21666;DHT22;10994;45.486;9.190;2023-01-16T15:10:28;8.90;99.90
21666;DHT22;10994;45.486;9.190;2023-01-16T15:13:21;8.90;99.90
21666;DHT22;10994;45.486;9.190;2023-01-16T15:16:01;9.00;99.90
21666;DHT22;10994;45.486;9.190;2023-01-16T15:18:27;9.00;99.90
21666;DHT22;10994;45.486;9.190;2023-01-16T15:21:15;9.10;99.90
21666;DHT22;10994;45.486;9.190;2023-01-16T15:24:01;9.10;99.90
21666;DHT22;10994;45.486;9.190;2023-01-16T15:29:50;9.00;99.90
21666;DHT22;10994;45.486;9.190;2023-01-16T15:32:14;9.00;99.90
21666;DHT22;10994;45.486;9.190;2023-01-16T15:34:46;8.90;99.90
21666;DHT22;10994;45.486;9.190;2023-01-16T15:37:23;8.80;99.90
21666;DHT22;10994;45.486;9.190;2023-01-16T15:39:49;8.70;99.90
21666;DHT22;10994;45.486;9.190;2023-01-16T15:42:24;8.70;99.90
21666;DHT22;10994;45.486;9.190;2023-01-16T15:45:25;8.70;99.90
21666;DHT22;10994;45.486;9.190;2023-01-16T15:50:55;8.80;99.90
21666;DHT22;10994;45.486;9.190;2023-01-16T15:53:32;8.80;99.90
21666;DHT22;10994;45.486;9.190;2023-01-16T15:56:10;8.80;99.90
21666;DHT22;10994;45.486;9.190;2023-01-16T15:58:42;8.90;99.90
21666;DHT22;10994;45.486;9.190;2023-01-16T16:01:08;8.90;99.90
21666;DHT22;10994;45.486;9.190;2023-01-16T16:03:43;8.90;99.90
21666;DHT22;10994;45.486;9.190;2023-01-16T16:06:12;8.90;99.90
21666;DHT22;10994;45.486;9.190;2023-01-16T16:08:43;8.90;99.90
21666;DHT22;10994;45.486;9.190;2023-01-16T16:11:21;8.90;99.90
21666;DHT22;10994;45.486;9.190;2023-01-16T16:14:30;8.90;99.90
21666;DHT22;10994;45.486;9.190;2023-01-16T16:22:59;8.80;99.90
21666;DHT22;10994;45.486;9.190;2023-01-16T16:25:30;8.80;99.90
21666;DHT22;10994;45.486;9.190;2023-01-16T16:27:57;8.80;99.90
21666;DHT22;10994;45.486;9.190;2023-01-16T16:30:27;8.80;99.90
21666;DHT22;10994;45.486;9.190;2023-01-16T16:32:54;8.80;99.90
21666;DHT22;10994;45.486;9.190;2023-01-16T16:35:26;8.80;99.90
21666;DHT22;10994;45.486;9.190;2023-01-16T16:37:53;8.80;99.90
21666;DHT22;10994;45.486;9.190;2023-01-16T16:40:19;8.90;99.90
21666;DHT22;10994;45.486;9.190;2023-01-16T16:47:44;9.20;99.90
21666;DHT22;10994;45.486;9.190;2023-01-16T16:50:33;9.20;99.90
21666;DHT22;10994;45.486;9.190;2023-01-16T16:53:16;9.20;99.90
21666;DHT22;10994;45.486;9.190;2023-01-16T16:55:48;9.10;99.90
21666;DHT22;10994;45.486;9.190;2023-01-16T16:58:23;9.00;99.90
21666;DHT22;10994;45.486;9.190;2023-01-16T17:00:49;9.00;99.90
21666;DHT22;10994;45.486;9.190;2023-01-16T17:03:18;8.90;99.90
21666;DHT22;10994;45.486;9.190;2023-01-16T17:05:46;8.90;99.90
21666;DHT22;10994;45.486;9.190;2023-01-16T17:08:20;8.90;99.90
21666;DHT22;10994;45.486;9.190;2023-01-16T17:10:47;8.80;99.90
21666;DHT22;10994;45.486;9.190;2023-01-16T17:13:22;8.80;99.90
21666;DHT22;10994;45.486;9.190;2023-01-16T17:15:53;8.90;99.90
21666;DHT22;10994;45.486;9.190;2023-01-16T17:18:19;8.90;99.90
21666;DHT22;10994;45.486;9.190;2023-01-16T17:20:47;8.70;99.90
21666;DHT22;10994;45.486;9.190;2023-01-16T17:23:15;8.70;99.90
21666;DHT22;10994;45.486;9.190;2023-01-16T17:25:42;8.70;99.90
21666;DHT22;10994;45.486;9.190;2023-01-16T17:28:08;8.60;99.90
21666;DHT22;10994;45.486;9.190;2023-01-16T17:30:34;8.60;99.90
21666;DHT22;10994;45.486;9.190;2023-01-16T17:33:04;8.70;99.90
21666;DHT22;10994;45.486;9.190;2023-01-16T17:35:36;8.70;99.90
21666;DHT22;10994;45.486;9.190;2023-01-16T17:40:36;8.60;99.90
21666;DHT22;10994;45.486;9.190;2023-01-16T17:43:02;8.60;99.90
21666;DHT22;10994;45.486;9.190;2023-01-16T17:45:47;8.50;99.90
21666;DHT22;10994;45.486;9.190;2023-01-16T17:48:29;8.50;99.90
21666;DHT22;10994;45.486;9.190;2023-01-16T17:50:57;8.50;99.90
21666;DHT22;10994;45.486;9.190;2023-01-16T17:53:26;8.50;99.90
21666;DHT22;10994;45.486;9.190;2023-01-16T17:55:54;8.50;99.90
21666;DHT22;10994;45.486;9.190;2023-01-16T17:58:39;8.40;99.90
21666;DHT22;10994;45.486;9.190;2023-01-16T18:01:22;8.40;99.90
21666;DHT22;10994;45.486;9.190;2023-01-16T18:03:58;8.40;99.90
21666;DHT22;10994;45.486;9.190;2023-01-16T18:06:24;8.30;99.90
21666;DHT22;10994;45.486;9.190;2023-01-16T18:08:52;8.30;99.90
21666;DHT22;10994;45.486;9.190;2023-01-16T18:11:18;8.20;99.90
21666;DHT22;10994;45.486;9.190;2023-01-16T18:14:03;8.20;99.90
21666;DHT22;10994;45.486;9.190;2023-01-16T18:16:47;8.20;99.90
21666;DHT22;10994;45.486;9.190;2023-01-16T18:19:32;8.20;99.90
21666;DHT22;10994;45.486;9.190;2023-01-16T18:21:57;8.10;99.90
21666;DHT22;10994;45.486;9.190;2023-01-16T18:24:30;8.10;99.90
21666;DHT22;10994;45.486;9.190;2023-01-16T18:26:57;8.00;99.90
21666;DHT22;10994;45.486;9.190;2023-01-16T18:29:22;8.10;99.90
21666;DHT22;10994;45.486;9.190;2023-01-16T18:31:48;8.10;99.90
21666;DHT22;10994;45.486;9.190;2023-01-16T18:34:33;8.10;99.90
21666;DHT22;10994;45.486;9.190;2023-01-16T18:36:59;8.20;99.90
21666;DHT22;10994;45.486;9.190;2023-01-16T18:39:24;8.20;99.90
21666;DHT22;10994;45.486;9.190;2023-01-16T18:42:14;8.20;99.90
21666;DHT22;10994;45.486;9.190;2023-01-16T18:44:58;8.20;99.90
21666;DHT22;10994;45.486;9.190;2023-01-16T18:47:43;8.30;99.90
21666;DHT22;10994;45.486;9.190;2023-01-16T18:50:27;8.30;99.90
21666;DHT22;10994;45.486;9.190;2023-01-16T18:56:02;8.20;99.90
21666;DHT22;10994;45.486;9.190;2023-01-16T18:58:46;8.20;99.90
21666;DHT22;10994;45.486;9.190;2023-01-16T19:01:30;8.20;99.90
21666;DHT22;10994;45.486;9.190;2023-01-16T19:04:22;8.20;99.90
21666;DHT22;10994;45.486;9.190;2023-01-16T19:06:48;8.30;99.90